createdAt,value
2023-01-28T00:00:50.835Z,94.40
2023-01-28T00:03:17.752Z,94.50
2023-01-28T00:05:44.557Z,94.40
2023-01-28T00:08:11.674Z,94.40
2023-01-28T00:10:41.877Z,94.40
2023-01-28T00:13:08.742Z,94.60
2023-01-28T00:15:35.696Z,94.40
2023-01-28T00:18:02.510Z,94.40
2023-01-28T00:20:29.392Z,94.80
2023-01-28T00:22:56.166Z,94.50
2023-01-28T00:25:23.075Z,94.50
2023-01-28T00:27:49.936Z,94.40
2023-01-28T00:30:17.095Z,94.70
2023-01-28T00:32:44.602Z,94.50
2023-01-28T00:35:13.695Z,94.50
2023-01-28T00:37:41.576Z,94.50
2023-01-28T00:40:10.076Z,94.50
2023-01-28T00:42:37.525Z,94.30
2023-01-28T00:45:04.496Z,94.50
2023-01-28T00:47:31.338Z,94.50
2023-01-28T00:49:58.448Z,94.60
2023-01-28T00:52:25.838Z,94.50
2023-01-28T00:54:54.613Z,94.50
2023-01-28T00:57:21.400Z,94.50
2023-01-28T00:59:48.203Z,94.30
2023-01-28T01:02:15.097Z,94.30
2023-01-28T01:04:54.896Z,94.50
2023-01-28T01:07:22.963Z,94.50
2023-01-28T01:09:49.919Z,94.50
2023-01-28T01:12:17.896Z,94.50
2023-01-28T01:14:44.726Z,94.50
2023-01-28T01:17:11.514Z,94.50
2023-01-28T01:19:38.345Z,94.40
2023-01-28T01:22:05.161Z,94.30
2023-01-28T01:24:34.291Z,94.50
2023-01-28T01:27:01.181Z,94.50
2023-01-28T01:29:29.391Z,94.70
2023-01-28T01:31:56.347Z,94.70
2023-01-28T01:34:23.223Z,94.70
2023-01-28T01:36:50.056Z,94.50
2023-01-28T01:39:16.930Z,94.50
2023-01-28T01:41:44.116Z,94.50
2023-01-28T01:44:31.178Z,94.50
2023-01-28T01:46:58.018Z,94.50
2023-01-28T01:49:27.934Z,94.30
2023-01-28T01:51:56.879Z,94.50
2023-01-28T01:54:23.848Z,94.70
2023-01-28T01:56:50.725Z,94.50
2023-01-28T01:59:18.530Z,94.50
2023-01-28T02:01:48.219Z,94.70
2023-01-28T02:04:29.214Z,94.70
2023-01-28T02:06:56.214Z,94.50
2023-01-28T02:09:27.035Z,94.50
2023-01-28T02:11:55.034Z,94.60
2023-01-28T02:14:30.526Z,94.70
2023-01-28T02:16:58.329Z,94.90
2023-01-28T02:19:26.103Z,94.90
2023-01-28T02:21:58.953Z,95.10
2023-01-28T02:24:32.479Z,95.10
2023-01-28T02:27:14.962Z,95.00
2023-01-28T02:29:44.382Z,95.00
2023-01-28T02:32:14.200Z,95.00
2023-01-28T02:34:42.762Z,94.90
2023-01-28T02:37:15.553Z,95.00
2023-01-28T02:39:46.931Z,95.10
2023-01-28T02:42:18.417Z,95.30
2023-01-28T02:44:45.283Z,95.10
2023-01-28T02:47:31.037Z,95.10
2023-01-28T02:49:58.952Z,95.20
2023-01-28T02:52:47.854Z,95.00
2023-01-28T02:55:25.390Z,95.10
2023-01-28T02:58:00.506Z,95.10
2023-01-28T03:00:30.665Z,94.90
2023-01-28T03:02:59.116Z,95.00
2023-01-28T03:05:27.231Z,95.20
2023-01-28T03:07:54.021Z,95.30
2023-01-28T03:10:21.606Z,94.90
2023-01-28T03:13:13.682Z,94.90
2023-01-28T03:16:03.258Z,95.30
2023-01-28T03:19:05.549Z,95.10
2023-01-28T03:21:55.716Z,95.10
2023-01-28T03:24:48.693Z,94.80
2023-01-28T03:27:36.826Z,94.60
2023-01-28T03:30:30.796Z,94.60
2023-01-28T03:33:19.037Z,94.40
2023-01-28T03:36:04.672Z,94.40
2023-01-28T03:38:34.120Z,93.70
2023-01-28T03:41:01.685Z,93.90
2023-01-28T03:43:30.617Z,93.80
2023-01-28T03:45:57.512Z,93.90
2023-01-28T03:48:24.955Z,94.00
2023-01-28T03:50:52.063Z,93.90
2023-01-28T03:53:19.241Z,94.00
2023-01-28T03:55:47.693Z,93.90
2023-01-28T03:58:14.733Z,94.00
2023-01-28T04:00:43.257Z,93.90
2023-01-28T04:03:18.672Z,93.90
2023-01-28T04:06:00.485Z,93.70
2023-01-28T04:08:38.961Z,93.80
2023-01-28T04:11:26.772Z,93.90
2023-01-28T04:13:54.906Z,93.80
2023-01-28T04:16:23.239Z,93.90
2023-01-28T04:18:50.128Z,93.70
2023-01-28T04:21:17.401Z,93.90
2023-01-28T04:23:44.706Z,93.90
2023-01-28T04:26:14.207Z,93.80
2023-01-28T04:28:41.085Z,93.70
2023-01-28T04:31:08.257Z,92.70
2023-01-28T04:33:46.233Z,92.50
2023-01-28T04:36:33.295Z,92.50
2023-01-28T04:39:06.689Z,92.50
2023-01-28T04:41:36.024Z,92.60
2023-01-28T04:44:14.527Z,92.50
2023-01-28T04:46:59.998Z,92.00
2023-01-28T04:49:52.897Z,92.30
2023-01-28T04:52:27.180Z,92.20
2023-01-28T04:55:18.088Z,92.10
2023-01-28T04:57:48.773Z,92.30
2023-01-28T05:00:15.849Z,92.00
2023-01-28T05:02:42.671Z,92.20
2023-01-28T05:05:09.575Z,92.00
2023-01-28T05:07:53.857Z,92.30
2023-01-28T05:10:20.691Z,92.50
2023-01-28T05:12:47.876Z,92.20
2023-01-28T05:15:16.098Z,92.30
2023-01-28T05:17:43.398Z,92.50
2023-01-28T05:20:12.241Z,92.60
2023-01-28T05:22:39.489Z,92.60
2023-01-28T05:25:16.391Z,92.50
2023-01-28T05:27:43.477Z,92.80
2023-01-28T05:30:11.340Z,92.80
2023-01-28T05:32:38.367Z,92.70
2023-01-28T05:35:05.706Z,92.90
2023-01-28T05:37:33.318Z,92.70
2023-01-28T05:40:00.888Z,92.30
2023-01-28T05:42:27.754Z,92.20
2023-01-28T05:45:03.914Z,92.10
2023-01-28T05:48:00.001Z,92.40
2023-01-28T05:50:39.824Z,91.90
2023-01-28T05:53:17.033Z,92.00
2023-01-28T05:55:52.126Z,92.10
2023-01-28T05:58:19.406Z,92.00
2023-01-28T06:00:46.406Z,92.20
2023-01-28T06:03:14.717Z,91.90
2023-01-28T06:05:43.238Z,92.20
2023-01-28T06:08:10.339Z,91.80
2023-01-28T06:10:37.589Z,91.90
2023-01-28T06:13:04.621Z,91.80
2023-01-28T06:15:40.095Z,92.10
2023-01-28T06:18:25.055Z,91.70
2023-01-28T06:20:51.868Z,91.90
2023-01-28T06:23:18.944Z,92.00
2023-01-28T06:25:45.806Z,91.90
2023-01-28T06:28:15.114Z,91.90
2023-01-28T06:30:42.027Z,92.10
2023-01-28T06:33:08.826Z,92.20
2023-01-28T06:35:35.793Z,92.30
2023-01-28T06:38:04.613Z,92.10
2023-01-28T06:40:31.515Z,92.10
2023-01-28T06:42:58.347Z,92.10
2023-01-28T06:45:25.287Z,92.50
2023-01-28T06:47:52.081Z,92.40
2023-01-28T06:50:18.924Z,92.20
2023-01-28T06:52:45.675Z,92.20
2023-01-28T06:55:12.583Z,92.30
2023-01-28T06:57:39.773Z,92.40
2023-01-28T07:00:10.629Z,91.90
2023-01-28T07:02:37.664Z,92.00
2023-01-28T07:05:04.829Z,92.20
2023-01-28T07:07:31.863Z,91.70
2023-01-28T07:09:58.725Z,92.00
2023-01-28T07:12:25.567Z,91.70
2023-01-28T07:14:52.371Z,91.70
2023-01-28T07:17:19.253Z,91.70
2023-01-28T07:19:46.069Z,90.30
2023-01-28T07:22:12.847Z,89.80
2023-01-28T07:24:39.631Z,88.10
2023-01-28T07:27:06.446Z,88.00
2023-01-28T07:29:34.150Z,86.90
2023-01-28T07:32:01.003Z,87.40
2023-01-28T07:34:27.885Z,88.40
2023-01-28T07:36:57.274Z,87.70
2023-01-28T07:39:24.353Z,88.90
2023-01-28T07:41:51.119Z,87.50
2023-01-28T07:44:47.303Z,88.60
2023-01-28T07:47:14.363Z,89.20
2023-01-28T07:49:41.426Z,89.90
2023-01-28T07:52:08.498Z,90.30
2023-01-28T07:54:35.259Z,90.20
2023-01-28T07:57:02.132Z,90.30
2023-01-28T07:59:28.925Z,90.40
2023-01-28T08:01:55.742Z,90.30
2023-01-28T08:04:22.596Z,90.20
2023-01-28T08:06:49.491Z,90.20
2023-01-28T08:09:16.274Z,90.30
2023-01-28T08:11:43.297Z,90.40
2023-01-28T08:14:10.589Z,90.80
2023-01-28T08:16:37.659Z,90.30
2023-01-28T08:19:07.722Z,90.30
2023-01-28T08:21:34.567Z,90.30
2023-01-28T08:24:01.373Z,90.30
2023-01-28T08:26:28.166Z,90.10
2023-01-28T08:28:54.978Z,90.30
2023-01-28T08:31:21.797Z,90.30
2023-01-28T08:33:48.597Z,90.00
2023-01-28T08:36:15.780Z,89.80
2023-01-28T08:38:43.583Z,87.90
2023-01-28T08:41:10.381Z,88.90
2023-01-28T08:43:37.134Z,90.30
2023-01-28T08:46:05.711Z,88.10
2023-01-28T08:48:32.508Z,87.50
2023-01-28T08:50:59.966Z,87.10
2023-01-28T08:53:26.751Z,88.10
2023-01-28T08:55:53.582Z,89.10
2023-01-28T08:58:20.370Z,90.00
2023-01-28T09:00:47.410Z,88.20
2023-01-28T09:03:14.267Z,88.40
2023-01-28T09:05:41.220Z,87.90
2023-01-28T09:08:08.962Z,88.20
2023-01-28T09:10:41.331Z,89.00
2023-01-28T09:13:12.081Z,89.80
2023-01-28T09:15:38.885Z,89.60
2023-01-28T09:18:05.748Z,89.40
2023-01-28T09:20:33.246Z,87.70
2023-01-28T09:23:00.397Z,88.50
2023-01-28T09:25:27.278Z,89.30
2023-01-28T09:27:54.130Z,88.90
2023-01-28T09:30:21.046Z,87.60
2023-01-28T09:32:51.484Z,84.70
2023-01-28T09:35:19.464Z,83.00
2023-01-28T09:37:46.551Z,82.50
2023-01-28T09:40:17.579Z,81.70
2023-01-28T09:43:03.553Z,83.00
2023-01-28T09:45:30.404Z,81.20
2023-01-28T09:47:58.298Z,76.20
2023-01-28T09:50:35.783Z,73.30
2023-01-28T09:53:07.509Z,71.30
2023-01-28T09:55:35.887Z,71.80
2023-01-28T09:58:04.950Z,69.70
2023-01-28T10:00:33.785Z,69.70
2023-01-28T10:03:12.884Z,66.10
2023-01-28T10:05:40.982Z,65.10
2023-01-28T10:08:28.029Z,64.90
2023-01-28T10:10:56.942Z,65.50
2023-01-28T10:13:28.869Z,63.70
2023-01-28T10:16:00.311Z,68.80
2023-01-28T10:18:34.687Z,71.10
2023-01-28T10:21:08.688Z,71.60
2023-01-28T10:23:35.459Z,72.00
2023-01-28T10:26:02.249Z,72.60
2023-01-28T10:28:29.289Z,65.40
2023-01-28T10:30:56.155Z,64.60
2023-01-28T10:33:23.002Z,63.80
2023-01-28T10:35:49.762Z,65.10
2023-01-28T10:38:17.626Z,60.80
2023-01-28T10:40:44.924Z,62.40
2023-01-28T10:43:11.723Z,57.30
2023-01-28T10:45:40.845Z,56.50
2023-01-28T10:48:13.725Z,56.00
2023-01-28T10:50:49.159Z,48.20
2023-01-28T10:53:15.967Z,49.40
2023-01-28T10:55:56.063Z,50.60
2023-01-28T10:58:27.275Z,51.40
2023-01-28T11:00:54.913Z,47.90
2023-01-28T11:03:21.820Z,59.00
2023-01-28T11:05:52.313Z,54.90
2023-01-28T11:08:19.268Z,56.50
2023-01-28T11:10:46.372Z,51.00
2023-01-28T11:13:16.249Z,61.10
2023-01-28T11:15:49.525Z,58.30
2023-01-28T11:18:21.537Z,52.60
2023-01-28T11:20:49.837Z,49.40
2023-01-28T11:23:20.107Z,57.30
2023-01-28T11:25:46.977Z,53.30
2023-01-28T11:28:18.075Z,51.50
2023-01-28T11:30:44.859Z,58.20
2023-01-28T11:33:18.722Z,59.00
2023-01-28T11:35:55.267Z,51.00
2023-01-28T11:38:23.016Z,51.40
2023-01-28T11:40:50.932Z,48.50
2023-01-28T11:43:17.711Z,52.30
2023-01-28T11:45:49.404Z,54.30
2023-01-28T11:48:16.351Z,45.20
2023-01-28T11:50:48.737Z,48.60
2023-01-28T11:53:17.010Z,52.60
2023-01-28T11:55:43.923Z,55.60
2023-01-28T11:58:13.816Z,51.80
2023-01-28T12:00:42.910Z,49.80
2023-01-28T12:03:12.713Z,50.50
2023-01-28T12:05:42.351Z,44.10
2023-01-28T12:08:11.194Z,43.70
2023-01-28T12:10:38.030Z,45.60
2023-01-28T12:13:10.674Z,46.50
2023-01-28T12:15:40.318Z,42.90
2023-01-28T12:18:19.442Z,49.00
2023-01-28T12:21:10.911Z,48.20
2023-01-28T12:23:43.514Z,49.90
2023-01-28T12:26:16.860Z,46.00
2023-01-28T12:28:46.722Z,46.40
2023-01-28T12:31:19.448Z,43.30
2023-01-28T12:34:06.638Z,50.30
2023-01-28T12:36:33.454Z,43.40
2023-01-28T12:39:16.379Z,47.40
2023-01-28T12:41:44.392Z,49.10
2023-01-28T12:44:15.309Z,48.00
2023-01-28T12:46:46.179Z,48.60
2023-01-28T12:49:22.069Z,51.90
2023-01-28T12:51:54.689Z,49.30
2023-01-28T12:54:33.525Z,50.40
2023-01-28T12:57:00.455Z,50.90
2023-01-28T12:59:36.648Z,49.60
2023-01-28T13:02:03.461Z,49.40
2023-01-28T13:04:40.003Z,49.80
2023-01-28T13:07:09.971Z,49.50
2023-01-28T13:09:37.082Z,51.10
2023-01-28T13:12:03.946Z,45.50
2023-01-28T13:14:31.740Z,49.50
2023-01-28T13:17:24.387Z,49.60
2023-01-28T13:19:51.155Z,43.00
2023-01-28T13:22:35.237Z,48.70
2023-01-28T13:25:20.900Z,49.50
2023-01-28T13:28:00.518Z,49.50
2023-01-28T13:30:28.356Z,49.60
2023-01-28T13:32:59.177Z,43.20
2023-01-28T13:35:38.971Z,49.50
2023-01-28T13:38:06.793Z,48.20
2023-01-28T13:40:33.565Z,46.80
2023-01-28T13:43:01.715Z,47.60
2023-01-28T13:45:28.647Z,50.40
2023-01-28T13:48:06.007Z,50.20
2023-01-28T13:50:35.237Z,54.20
2023-01-28T13:53:06.234Z,47.30
2023-01-28T13:55:44.610Z,44.50
2023-01-28T13:58:30.932Z,49.40
2023-01-28T14:00:57.703Z,45.60
2023-01-28T14:03:50.744Z,49.40
2023-01-28T14:06:17.603Z,50.10
2023-01-28T14:08:50.575Z,49.40
2023-01-28T14:11:35.917Z,49.40
2023-01-28T14:14:08.568Z,49.30
2023-01-28T14:16:52.098Z,55.40
2023-01-28T14:19:19.964Z,52.10
2023-01-28T14:21:46.762Z,54.10
2023-01-28T14:24:17.370Z,55.80
2023-01-28T14:26:53.427Z,56.10
2023-01-28T14:29:26.530Z,56.00
2023-01-28T14:31:53.484Z,55.10
2023-01-28T14:34:22.942Z,58.50
2023-01-28T14:36:49.843Z,55.10
2023-01-28T14:39:17.816Z,57.10
2023-01-28T14:41:45.714Z,53.00
2023-01-28T14:44:15.029Z,54.90
2023-01-28T14:46:46.237Z,54.70
2023-01-28T14:49:19.111Z,58.10
2023-01-28T14:51:49.355Z,56.00
2023-01-28T14:54:31.048Z,56.90
2023-01-28T14:57:16.816Z,54.80
2023-01-28T14:59:48.479Z,55.40
2023-01-28T15:02:19.937Z,53.70
2023-01-28T15:04:46.762Z,56.20
2023-01-28T15:07:17.451Z,58.00
2023-01-28T15:09:44.415Z,55.30
2023-01-28T15:12:11.252Z,55.90
2023-01-28T15:14:39.877Z,55.80
2023-01-28T15:17:06.729Z,56.10
2023-01-28T15:19:36.611Z,56.90
2023-01-28T15:22:04.689Z,56.30
2023-01-28T15:24:31.996Z,55.60
2023-01-28T15:26:58.861Z,53.50
2023-01-28T15:29:26.674Z,60.30
2023-01-28T15:31:53.664Z,58.20
2023-01-28T15:34:20.587Z,54.70
2023-01-28T15:36:49.512Z,57.80
2023-01-28T15:39:17.360Z,53.50
2023-01-28T15:41:47.374Z,59.70
2023-01-28T15:44:18.288Z,57.50
2023-01-28T15:46:45.122Z,57.20
2023-01-28T15:49:15.095Z,57.00
2023-01-28T15:51:42.019Z,59.40
2023-01-28T15:54:09.401Z,60.00
2023-01-28T15:56:36.376Z,61.50
2023-01-28T15:59:10.190Z,62.00
2023-01-28T16:01:37.031Z,59.10
2023-01-28T16:04:04.930Z,60.20
2023-01-28T16:06:36.045Z,61.40
2023-01-28T16:09:03.975Z,59.40
2023-01-28T16:11:32.038Z,61.40
2023-01-28T16:13:58.913Z,63.00
2023-01-28T16:16:35.152Z,64.30
2023-01-28T16:19:02.941Z,60.20
2023-01-28T16:21:43.346Z,62.90
2023-01-28T16:24:23.340Z,61.90
2023-01-28T16:26:59.395Z,61.80
2023-01-28T16:29:26.479Z,63.00
2023-01-28T16:31:53.487Z,62.40
2023-01-28T16:34:20.390Z,61.30
2023-01-28T16:36:47.214Z,63.10
2023-01-28T16:39:14.039Z,63.10
2023-01-28T16:41:41.482Z,61.20
2023-01-28T16:44:11.090Z,62.40
2023-01-28T16:46:37.988Z,63.80
2023-01-28T16:49:04.992Z,66.20
2023-01-28T16:51:31.796Z,67.30
2023-01-28T16:53:58.667Z,68.00
2023-01-28T16:59:13.680Z,65.50
2023-01-28T17:01:40.427Z,66.20
2023-01-28T17:04:12.299Z,66.80
2023-01-28T17:06:42.901Z,66.10
2023-01-28T17:09:10.356Z,66.00
2023-01-28T17:11:37.180Z,66.80
2023-01-28T17:14:04.000Z,66.90
2023-01-28T17:16:30.878Z,67.90
2023-01-28T17:18:57.712Z,67.20
2023-01-28T17:21:24.496Z,66.10
2023-01-28T17:23:51.365Z,69.10
2023-01-28T17:26:18.267Z,70.30
2023-01-28T17:28:45.037Z,68.60
2023-01-28T17:31:12.906Z,68.80
2023-01-28T17:33:40.144Z,71.20
2023-01-28T17:36:07.126Z,70.70
2023-01-28T17:38:33.962Z,69.90
2023-01-28T17:41:01.658Z,70.70
2023-01-28T17:43:28.560Z,68.80
2023-01-28T17:45:55.365Z,69.80
2023-01-28T17:48:22.373Z,70.70
2023-01-28T17:50:49.202Z,70.70
2023-01-28T17:53:16.064Z,69.30
2023-01-28T17:55:42.829Z,70.70
2023-01-28T17:58:09.643Z,70.70
2023-01-28T18:00:36.457Z,70.70
2023-01-28T18:03:03.546Z,70.60
2023-01-28T18:05:30.498Z,69.10
2023-01-28T18:07:57.299Z,71.00
2023-01-28T18:10:24.119Z,70.60
2023-01-28T18:12:50.914Z,71.80
2023-01-28T18:15:18.141Z,72.20
2023-01-28T18:17:45.244Z,71.70
2023-01-28T18:20:12.140Z,71.90
2023-01-28T18:22:38.952Z,72.50
2023-01-28T18:25:06.010Z,71.80
2023-01-28T18:27:33.033Z,73.00
2023-01-28T18:29:59.796Z,72.50
2023-01-28T18:32:26.802Z,72.70
2023-01-28T18:34:53.559Z,73.10
2023-01-28T18:37:20.366Z,74.10
2023-01-28T18:39:47.207Z,73.70
2023-01-28T18:42:14.508Z,74.00
2023-01-28T18:44:41.401Z,75.40
2023-01-28T18:47:08.200Z,74.50
2023-01-28T18:49:34.961Z,73.70
2023-01-28T18:52:01.790Z,73.50
2023-01-28T18:54:28.651Z,75.20
2023-01-28T18:56:55.523Z,74.50
2023-01-28T18:59:22.422Z,75.20
2023-01-28T19:01:49.247Z,74.10
2023-01-28T19:04:16.098Z,73.20
2023-01-28T19:06:43.033Z,75.80
2023-01-28T19:09:10.670Z,75.20
2023-01-28T19:11:38.613Z,74.80
2023-01-28T19:14:06.331Z,74.70
2023-01-28T19:16:35.364Z,72.20
2023-01-28T19:19:02.260Z,73.20
2023-01-28T19:21:29.426Z,74.00
2023-01-28T19:23:56.460Z,74.20
2023-01-28T19:26:24.060Z,72.40
2023-01-28T19:28:50.919Z,72.40
2023-01-28T19:31:19.686Z,71.50
2023-01-28T19:33:46.727Z,74.40
2023-01-28T19:36:13.810Z,73.10
2023-01-28T19:38:40.835Z,73.70
2023-01-28T19:41:07.715Z,75.50
2023-01-28T19:43:34.657Z,75.70
2023-01-28T19:46:02.281Z,75.50
2023-01-28T19:48:29.466Z,76.00
2023-01-28T19:50:56.514Z,76.60
2023-01-28T19:53:23.320Z,76.90
2023-01-28T19:55:52.139Z,77.30
2023-01-28T19:58:19.160Z,73.50
2023-01-28T20:00:45.925Z,75.90
2023-01-28T20:03:12.878Z,75.80
2023-01-28T20:05:39.683Z,77.20
2023-01-28T20:08:06.603Z,76.90
2023-01-28T20:10:33.351Z,76.80
2023-01-28T20:13:00.177Z,76.50
2023-01-28T20:15:26.993Z,75.90
2023-01-28T20:17:54.222Z,76.40
2023-01-28T20:20:21.012Z,77.90
2023-01-28T20:22:47.802Z,76.60
2023-01-28T20:25:16.682Z,77.30
2023-01-28T20:27:43.668Z,76.90
2023-01-28T20:30:10.938Z,76.80
2023-01-28T20:32:37.822Z,77.20
2023-01-28T20:35:04.682Z,76.10
2023-01-28T20:37:31.527Z,74.90
2023-01-28T20:39:58.321Z,74.20
2023-01-28T20:42:25.090Z,76.50
2023-01-28T20:44:51.960Z,76.70
2023-01-28T20:47:18.761Z,74.70
2023-01-28T20:49:45.577Z,75.20
2023-01-28T20:52:12.424Z,76.30
2023-01-28T20:54:39.189Z,77.20
2023-01-28T20:57:05.957Z,77.40
2023-01-28T20:59:32.750Z,77.50
2023-01-28T21:02:00.868Z,77.80
2023-01-28T21:04:27.728Z,77.20
2023-01-28T21:06:54.524Z,77.40
2023-01-28T21:09:22.751Z,77.80
2023-01-28T21:11:49.525Z,78.50
2023-01-28T21:14:17.099Z,77.20
2023-01-28T21:16:44.848Z,75.90
2023-01-28T21:19:11.798Z,75.10
2023-01-28T21:21:42.579Z,75.00
2023-01-28T21:24:11.527Z,75.90
2023-01-28T21:26:38.336Z,75.80
2023-01-28T21:29:05.122Z,75.40
2023-01-28T21:31:31.885Z,75.70
2023-01-28T21:33:58.959Z,76.60
2023-01-28T21:36:25.820Z,76.80
2023-01-28T21:38:55.232Z,76.00
2023-01-28T21:41:21.998Z,76.50
2023-01-28T21:43:49.582Z,77.60
2023-01-28T21:46:16.355Z,78.20
2023-01-28T21:48:43.171Z,77.10
2023-01-28T21:51:28.683Z,77.10
2023-01-28T21:53:55.570Z,76.80
2023-01-28T21:56:22.319Z,75.60
2023-01-28T21:59:07.925Z,77.50
2023-01-28T22:01:34.810Z,78.00
2023-01-28T22:04:01.676Z,78.60
2023-01-28T22:06:28.508Z,76.40
2023-01-28T22:08:55.353Z,78.10
2023-01-28T22:11:22.251Z,78.90
2023-01-28T22:13:49.032Z,79.40
2023-01-28T22:16:16.366Z,78.70
2023-01-28T22:18:43.153Z,78.10
2023-01-28T22:21:11.062Z,77.80
2023-01-28T22:23:37.857Z,78.70
2023-01-28T22:26:04.719Z,78.70
2023-01-28T22:28:31.538Z,80.00
2023-01-28T22:31:07.975Z,79.50
2023-01-28T22:33:35.117Z,79.60
2023-01-28T22:36:01.934Z,78.60
2023-01-28T22:38:28.741Z,78.70
2023-01-28T22:40:55.526Z,78.60
2023-01-28T22:43:22.710Z,79.30
2023-01-28T22:45:50.036Z,79.40
2023-01-28T22:48:16.830Z,78.90
2023-01-28T22:50:43.598Z,79.30
2023-01-28T22:53:10.443Z,79.50
2023-01-28T22:55:37.258Z,80.10
2023-01-28T22:58:05.557Z,79.90
2023-01-28T23:00:32.355Z,80.80
2023-01-28T23:03:00.580Z,81.30
2023-01-28T23:05:27.498Z,80.50
2023-01-28T23:07:54.259Z,80.80
2023-01-28T23:10:21.053Z,81.20
2023-01-28T23:12:53.406Z,81.10
2023-01-28T23:15:40.612Z,82.70
2023-01-28T23:18:27.713Z,82.90
2023-01-28T23:21:13.209Z,82.80
2023-01-28T23:23:58.861Z,83.30
2023-01-28T23:26:25.689Z,83.10
2023-01-28T23:28:52.463Z,83.30
2023-01-28T23:31:20.304Z,84.90
2023-01-28T23:33:47.087Z,83.40
2023-01-28T23:36:13.955Z,84.00
2023-01-28T23:38:40.733Z,83.80
2023-01-28T23:41:08.755Z,83.90
2023-01-28T23:43:35.591Z,83.00
2023-01-28T23:46:02.365Z,83.30
2023-01-28T23:48:29.597Z,83.70
2023-01-28T23:50:56.429Z,83.80
2023-01-28T23:53:23.513Z,82.60
2023-01-28T23:55:50.272Z,82.80
2023-01-28T23:58:26.584Z,83.00
